createdAt,value
2023-05-16T00:01:35.957Z,87.10
2023-05-16T00:04:05.153Z,87.27
2023-05-16T00:06:35.809Z,86.41
2023-05-16T00:09:05.043Z,86.93
2023-05-16T00:11:33.888Z,86.29
2023-05-16T00:14:02.811Z,86.51
2023-05-16T00:16:31.706Z,86.60
2023-05-16T00:19:01.377Z,86.28
2023-05-16T00:21:30.236Z,86.38
2023-05-16T00:24:00.371Z,86.48
2023-05-16T00:26:29.537Z,86.53
2023-05-16T00:28:58.266Z,86.33
2023-05-16T00:31:27.171Z,86.23
2023-05-16T00:33:56.075Z,86.09
2023-05-16T00:36:27.283Z,86.57
2023-05-16T00:38:56.652Z,86.23
2023-05-16T00:41:26.942Z,86.54
2023-05-16T00:43:55.796Z,86.39
2023-05-16T00:46:24.568Z,86.15
2023-05-16T00:48:54.069Z,86.73
2023-05-16T00:51:23.013Z,86.23
2023-05-16T00:53:52.055Z,86.37
2023-05-16T00:56:21.755Z,86.66
2023-05-16T00:58:52.136Z,86.30
2023-05-16T01:01:22.429Z,86.78
2023-05-16T01:03:51.705Z,86.42
2023-05-16T01:06:21.122Z,86.74
2023-05-16T01:08:49.848Z,86.19
2023-05-16T01:11:24.432Z,86.11
2023-05-16T01:14:02.325Z,86.19
2023-05-16T01:16:37.957Z,86.68
2023-05-16T01:19:16.451Z,86.66
2023-05-16T01:21:58.896Z,86.51
2023-05-16T01:24:35.135Z,86.65
2023-05-16T01:27:07.566Z,86.59
2023-05-16T01:29:36.814Z,86.48
2023-05-16T01:32:06.974Z,86.68
2023-05-16T01:34:35.888Z,86.68
2023-05-16T01:37:24.922Z,86.64
2023-05-16T01:39:59.109Z,87.16
2023-05-16T01:42:34.508Z,87.45
2023-05-16T01:45:12.884Z,87.01
2023-05-16T01:47:46.677Z,87.36
2023-05-16T01:50:19.046Z,87.47
2023-05-16T01:52:54.592Z,87.52
2023-05-16T01:55:33.858Z,87.06
2023-05-16T01:58:11.691Z,87.38
2023-05-16T02:00:41.739Z,87.62
2023-05-16T02:03:11.132Z,87.50
2023-05-16T02:05:40.548Z,87.22
2023-05-16T02:08:12.169Z,87.83
2023-05-16T02:10:41.572Z,88.17
2023-05-16T02:13:11.733Z,87.98
2023-05-16T02:15:40.662Z,87.91
2023-05-16T02:18:09.540Z,87.59
2023-05-16T02:20:38.550Z,87.56
2023-05-16T02:23:07.510Z,87.81
2023-05-16T02:25:36.320Z,87.94
2023-05-16T02:28:05.144Z,87.66
2023-05-16T02:30:35.845Z,88.18
2023-05-16T02:33:04.963Z,87.56
2023-05-16T02:35:33.690Z,87.88
2023-05-16T02:38:02.501Z,88.06
2023-05-16T02:40:31.551Z,87.93
2023-05-16T02:43:00.283Z,88.12
2023-05-16T02:45:29.136Z,88.16
2023-05-16T02:47:59.447Z,88.18
2023-05-16T02:50:28.358Z,88.30
2023-05-16T02:52:57.000Z,88.17
2023-05-16T02:55:26.534Z,88.52
2023-05-16T02:57:55.357Z,88.25
2023-05-16T03:00:24.399Z,88.43
2023-05-16T03:02:53.192Z,88.43
2023-05-16T03:05:26.239Z,88.26
2023-05-16T03:07:56.176Z,88.16
2023-05-16T03:10:25.055Z,88.46
2023-05-16T03:12:53.950Z,88.32
2023-05-16T03:15:24.633Z,88.44
2023-05-16T03:17:53.736Z,88.05
2023-05-16T03:20:24.120Z,88.44
2023-05-16T03:22:52.941Z,88.48
2023-05-16T03:25:21.777Z,88.45
2023-05-16T03:27:50.587Z,88.08
2023-05-16T03:30:21.579Z,88.43
2023-05-16T03:32:50.346Z,87.89
2023-05-16T03:35:19.143Z,88.16
2023-05-16T03:37:49.492Z,88.25
2023-05-16T03:40:18.581Z,88.57
2023-05-16T03:42:47.502Z,88.51
2023-05-16T03:45:16.281Z,88.54
2023-05-16T03:47:45.463Z,88.42
2023-05-16T03:50:14.249Z,88.65
2023-05-16T03:52:43.154Z,88.81
2023-05-16T03:55:14.574Z,88.87
2023-05-16T03:57:44.151Z,88.51
2023-05-16T04:00:13.923Z,88.35
2023-05-16T04:02:44.109Z,88.44
2023-05-16T04:05:14.121Z,88.62
2023-05-16T04:07:43.303Z,88.31
2023-05-16T04:10:14.518Z,88.89
2023-05-16T04:12:44.811Z,88.98
2023-05-16T04:15:14.211Z,88.71
2023-05-16T04:17:43.110Z,88.66
2023-05-16T04:20:15.150Z,88.57
2023-05-16T04:22:43.946Z,88.85
2023-05-16T04:25:14.661Z,88.86
2023-05-16T04:27:43.571Z,88.66
2023-05-16T04:30:14.508Z,88.54
2023-05-16T04:32:43.455Z,88.54
2023-05-16T04:35:12.264Z,88.92
2023-05-16T04:37:41.401Z,88.75
2023-05-16T04:40:11.353Z,88.77
2023-05-16T04:42:41.665Z,88.56
2023-05-16T04:45:12.424Z,88.32
2023-05-16T04:47:41.664Z,88.33
2023-05-16T04:50:11.456Z,88.59
2023-05-16T04:52:40.353Z,88.48
2023-05-16T04:55:10.192Z,88.28
2023-05-16T04:57:39.117Z,88.19
2023-05-16T05:00:10.672Z,88.38
2023-05-16T05:02:39.745Z,87.80
2023-05-16T05:05:09.993Z,88.17
2023-05-16T05:07:38.859Z,87.97
2023-05-16T05:10:09.005Z,88.07
2023-05-16T05:12:37.869Z,87.84
2023-05-16T05:15:09.278Z,87.55
2023-05-16T05:17:39.389Z,87.54
2023-05-16T05:20:10.855Z,87.29
2023-05-16T05:22:39.756Z,87.20
2023-05-16T05:25:08.994Z,87.04
2023-05-16T05:27:37.865Z,86.96
2023-05-16T05:30:09.584Z,86.40
2023-05-16T05:32:38.540Z,86.77
2023-05-16T05:35:08.329Z,86.50
2023-05-16T05:37:37.125Z,86.44
2023-05-16T05:40:06.805Z,86.40
2023-05-16T05:42:35.673Z,86.13
2023-05-16T05:45:04.809Z,85.89
2023-05-16T05:47:35.288Z,85.39
2023-05-16T05:50:04.922Z,85.22
2023-05-16T05:52:34.021Z,85.02
2023-05-16T05:55:02.787Z,84.60
2023-05-16T05:57:32.080Z,84.10
2023-05-16T06:00:01.004Z,83.94
2023-05-16T06:02:29.850Z,83.57
2023-05-16T06:05:00.297Z,83.63
2023-05-16T06:07:29.211Z,83.55
2023-05-16T06:09:57.971Z,83.45
2023-05-16T06:12:26.903Z,83.57
2023-05-16T06:14:55.859Z,83.60
2023-05-16T06:17:24.658Z,83.85
2023-05-16T06:19:53.382Z,83.39
2023-05-16T06:22:23.506Z,83.50
2023-05-16T06:24:52.192Z,83.34
2023-05-16T06:27:20.965Z,83.15
2023-05-16T06:29:50.048Z,83.08
2023-05-16T06:32:18.693Z,82.88
2023-05-16T06:34:47.499Z,82.76
2023-05-16T06:37:16.247Z,82.49
2023-05-16T06:39:46.520Z,82.14
2023-05-16T06:42:15.400Z,81.89
2023-05-16T06:44:44.505Z,81.41
2023-05-16T06:47:13.226Z,81.91
2023-05-16T06:49:42.097Z,81.79
2023-05-16T06:52:11.580Z,80.92
2023-05-16T06:54:40.404Z,80.85
2023-05-16T06:57:11.126Z,80.77
2023-05-16T06:59:39.983Z,80.91
2023-05-16T07:02:08.700Z,80.57
2023-05-16T07:04:38.219Z,80.26
2023-05-16T07:07:07.999Z,80.54
2023-05-16T07:09:36.731Z,80.30
2023-05-16T07:12:05.979Z,80.04
2023-05-16T07:14:36.240Z,79.29
2023-05-16T07:17:05.286Z,78.88
2023-05-16T07:19:34.039Z,78.48
2023-05-16T07:22:03.420Z,78.48
2023-05-16T07:24:32.016Z,78.29
2023-05-16T07:27:00.963Z,77.79
2023-05-16T07:29:30.542Z,77.45
2023-05-16T07:32:00.444Z,77.73
2023-05-16T07:34:29.245Z,77.83
2023-05-16T07:36:58.250Z,77.81
2023-05-16T07:39:28.059Z,77.87
2023-05-16T07:41:57.142Z,78.21
2023-05-16T07:44:26.116Z,77.79
2023-05-16T07:46:54.872Z,77.83
2023-05-16T07:49:25.247Z,78.03
2023-05-16T07:51:54.066Z,77.97
2023-05-16T07:54:22.817Z,78.12
2023-05-16T07:56:51.746Z,78.02
2023-05-16T07:59:20.556Z,78.12
2023-05-16T08:01:49.470Z,77.38
2023-05-16T08:04:18.250Z,77.47
2023-05-16T08:06:48.469Z,77.71
2023-05-16T08:09:17.246Z,77.43
2023-05-16T08:11:46.650Z,77.49
2023-05-16T08:14:15.474Z,77.79
2023-05-16T08:16:44.411Z,77.57
2023-05-16T08:19:13.287Z,77.35
2023-05-16T08:21:42.172Z,77.74
2023-05-16T08:24:12.559Z,77.49
2023-05-16T08:26:41.485Z,78.05
2023-05-16T08:29:10.259Z,77.68
2023-05-16T08:31:39.280Z,77.72
2023-05-16T08:34:09.588Z,77.76
2023-05-16T08:36:38.471Z,77.11
2023-05-16T08:39:07.704Z,77.31
2023-05-16T08:41:38.092Z,76.96
2023-05-16T08:44:08.383Z,76.73
2023-05-16T08:46:39.383Z,76.89
2023-05-16T08:49:10.333Z,77.59
2023-05-16T08:51:39.857Z,77.30
2023-05-16T08:54:13.616Z,77.12
2023-05-16T08:56:44.973Z,77.64
2023-05-16T08:59:14.048Z,77.55
2023-05-16T09:01:43.512Z,77.76
2023-05-16T09:04:12.569Z,78.19
2023-05-16T09:06:41.924Z,78.33
2023-05-16T09:09:13.294Z,79.08
2023-05-16T09:11:43.809Z,79.44
2023-05-16T09:14:12.576Z,79.67
2023-05-16T09:16:41.950Z,79.37
2023-05-16T09:19:14.846Z,79.67
2023-05-16T09:21:43.894Z,80.13
2023-05-16T09:24:12.492Z,80.84
2023-05-16T09:26:41.266Z,81.14
2023-05-16T09:29:15.377Z,81.21
2023-05-16T09:31:44.381Z,82.13
2023-05-16T09:34:13.190Z,83.05
2023-05-16T09:36:43.788Z,83.02
2023-05-16T09:39:17.158Z,83.64
2023-05-16T09:41:46.144Z,83.55
2023-05-16T09:44:16.368Z,83.92
2023-05-16T09:46:45.393Z,83.53
2023-05-16T09:49:15.788Z,83.62
2023-05-16T09:51:46.589Z,83.81
2023-05-16T09:54:15.834Z,83.75
2023-05-16T09:56:52.089Z,83.94
2023-05-16T09:59:23.469Z,84.21
2023-05-16T10:01:54.518Z,83.79
2023-05-16T10:04:23.492Z,84.15
2023-05-16T10:06:52.852Z,84.11
2023-05-16T10:09:24.113Z,83.93
2023-05-16T10:11:54.024Z,83.13
2023-05-16T10:14:27.019Z,83.03
2023-05-16T10:16:56.239Z,82.97
2023-05-16T10:19:28.716Z,82.60
2023-05-16T10:22:02.382Z,82.33
2023-05-16T10:24:37.826Z,82.13
2023-05-16T10:27:07.626Z,82.13
2023-05-16T10:29:50.402Z,81.65
2023-05-16T10:32:25.797Z,81.16
2023-05-16T10:34:56.227Z,81.20
2023-05-16T10:37:26.771Z,81.11
2023-05-16T10:39:56.030Z,81.50
2023-05-16T10:42:24.774Z,80.88
2023-05-16T10:45:10.389Z,80.73
2023-05-16T10:47:39.694Z,80.55
2023-05-16T10:50:09.345Z,80.07
2023-05-16T10:52:38.224Z,79.74
2023-05-16T10:55:07.422Z,80.12
2023-05-16T10:57:36.803Z,80.37
2023-05-16T11:00:23.595Z,80.40
2023-05-16T11:02:52.656Z,80.66
2023-05-16T11:05:21.884Z,80.28
2023-05-16T11:08:06.004Z,80.69
2023-05-16T11:10:34.969Z,81.49
2023-05-16T11:13:10.348Z,82.20
2023-05-16T11:15:40.571Z,82.86
2023-05-16T11:18:11.327Z,83.22
2023-05-16T11:20:41.752Z,83.29
2023-05-16T11:23:21.475Z,83.76
2023-05-16T11:25:54.222Z,83.98
2023-05-16T11:28:25.326Z,84.67
2023-05-16T11:30:57.846Z,85.23
2023-05-16T11:33:29.982Z,86.09
2023-05-16T11:36:14.506Z,86.36
2023-05-16T11:38:46.065Z,86.78
2023-05-16T11:41:16.796Z,86.84
2023-05-16T11:43:47.620Z,87.30
2023-05-16T11:46:18.221Z,88.33
2023-05-16T11:48:47.706Z,88.24
2023-05-16T11:51:21.045Z,88.49
2023-05-16T11:53:51.243Z,88.67
2023-05-16T11:56:20.305Z,88.66
2023-05-16T11:58:49.154Z,89.00
2023-05-16T12:01:19.406Z,88.88
2023-05-16T12:03:56.786Z,88.78
2023-05-16T12:06:26.753Z,89.17
2023-05-16T12:08:57.209Z,89.40
2023-05-16T12:11:26.517Z,89.29
2023-05-16T12:13:55.491Z,89.58
2023-05-16T12:16:26.225Z,90.11
2023-05-16T12:18:55.244Z,90.02
2023-05-16T12:21:24.212Z,90.05
2023-05-16T12:23:57.381Z,90.30
2023-05-16T12:26:31.179Z,90.57
2023-05-16T12:29:01.112Z,90.76
2023-05-16T12:31:32.763Z,90.94
2023-05-16T12:34:01.944Z,91.41
2023-05-16T12:36:34.897Z,91.32
2023-05-16T12:39:04.373Z,91.33
2023-05-16T12:41:33.219Z,91.28
2023-05-16T12:44:08.853Z,91.33
2023-05-16T12:46:42.948Z,91.40
2023-05-16T12:49:11.873Z,91.72
2023-05-16T12:51:41.190Z,91.66
2023-05-16T12:54:12.485Z,92.09
2023-05-16T12:56:42.347Z,92.54
2023-05-16T12:59:12.715Z,92.35
2023-05-16T13:01:44.760Z,92.52
2023-05-16T13:04:19.012Z,93.11
2023-05-16T13:06:59.383Z,92.56
2023-05-16T13:09:32.514Z,93.19
2023-05-16T13:12:02.054Z,93.34
2023-05-16T13:14:30.910Z,93.53
2023-05-16T13:17:02.341Z,93.81
2023-05-16T13:19:32.044Z,93.97
2023-05-16T13:22:00.982Z,93.85
2023-05-16T13:24:29.821Z,93.78
2023-05-16T13:27:00.020Z,94.42
2023-05-16T13:29:28.927Z,94.65
2023-05-16T13:31:57.829Z,94.46
2023-05-16T13:34:28.159Z,94.50
2023-05-16T13:36:57.072Z,94.93
2023-05-16T13:39:25.760Z,94.45
2023-05-16T13:41:55.321Z,94.81
2023-05-16T13:44:24.090Z,94.60
2023-05-16T13:46:52.866Z,94.80
2023-05-16T13:49:22.544Z,94.91
2023-05-16T13:51:53.745Z,95.00
2023-05-16T13:54:23.053Z,94.89
2023-05-16T13:56:52.006Z,95.00
2023-05-16T13:59:28.520Z,95.58
2023-05-16T14:02:10.163Z,95.57
2023-05-16T14:04:39.012Z,95.68
2023-05-16T14:07:09.395Z,95.59
2023-05-16T14:09:39.664Z,95.58
2023-05-16T14:12:09.213Z,95.40
2023-05-16T14:14:38.116Z,95.72
2023-05-16T14:17:07.852Z,95.75
2023-05-16T14:19:36.592Z,96.37
2023-05-16T14:22:05.661Z,96.65
2023-05-16T14:24:36.158Z,96.17
2023-05-16T14:27:05.309Z,96.56
2023-05-16T14:29:34.082Z,96.65
2023-05-16T14:32:02.916Z,96.62
2023-05-16T14:34:31.826Z,96.96
2023-05-16T14:37:00.583Z,96.65
2023-05-16T14:39:29.370Z,96.67
2023-05-16T14:41:59.635Z,96.92
2023-05-16T14:44:28.518Z,96.94
2023-05-16T14:46:57.306Z,96.55
2023-05-16T14:49:27.578Z,96.82
2023-05-16T14:51:56.987Z,96.45
2023-05-16T14:54:25.991Z,96.69
2023-05-16T14:56:55.903Z,96.53
2023-05-16T14:59:26.397Z,96.69
2023-05-16T15:01:55.231Z,96.66
2023-05-16T15:04:24.298Z,96.40
2023-05-16T15:06:53.089Z,96.49
2023-05-16T15:09:21.877Z,96.53
2023-05-16T15:11:50.902Z,96.97
2023-05-16T15:14:19.709Z,97.05
2023-05-16T15:16:49.977Z,96.53
2023-05-16T15:19:18.955Z,96.47
2023-05-16T15:21:47.778Z,96.57
2023-05-16T15:24:16.841Z,96.73
2023-05-16T15:26:45.830Z,97.06
2023-05-16T15:29:14.613Z,96.81
2023-05-16T15:31:43.372Z,96.78
2023-05-16T15:34:13.631Z,97.17
2023-05-16T15:36:42.928Z,96.91
2023-05-16T15:39:12.086Z,96.59
2023-05-16T15:42:05.320Z,97.12
2023-05-16T15:44:29.852Z,97.19
2023-05-16T15:46:58.639Z,96.85
2023-05-16T15:49:29.048Z,97.13
2023-05-16T15:51:58.043Z,97.13
2023-05-16T15:54:26.857Z,97.46
2023-05-16T15:56:55.748Z,97.52
2023-05-16T15:59:24.606Z,97.26
2023-05-16T16:01:53.467Z,97.29
2023-05-16T16:04:23.711Z,97.17
2023-05-16T16:06:54.517Z,97.39
2023-05-16T16:09:24.236Z,97.43
2023-05-16T16:11:56.673Z,97.46
2023-05-16T16:14:25.931Z,97.25
2023-05-16T16:16:54.744Z,97.31
2023-05-16T16:19:24.090Z,97.42
2023-05-16T16:21:54.559Z,97.49
2023-05-16T16:24:23.617Z,97.48
2023-05-16T16:26:52.515Z,97.26
2023-05-16T16:29:21.270Z,97.27
2023-05-16T16:31:50.677Z,97.49
2023-05-16T16:34:21.538Z,97.80
2023-05-16T16:36:53.769Z,97.86
2023-05-16T16:39:22.759Z,97.86
2023-05-16T16:41:51.554Z,97.48
2023-05-16T16:44:21.474Z,97.81
2023-05-16T16:46:50.504Z,97.65
2023-05-16T16:49:19.326Z,97.64
2023-05-16T16:51:48.171Z,97.65
2023-05-16T16:54:18.565Z,97.85
2023-05-16T16:56:48.039Z,97.65
2023-05-16T16:59:16.995Z,97.97
2023-05-16T17:01:46.040Z,98.09
2023-05-16T17:04:14.938Z,97.78
2023-05-16T17:06:44.138Z,98.14
2023-05-16T17:09:15.867Z,97.87
2023-05-16T17:11:47.153Z,98.02
2023-05-16T17:14:16.876Z,97.94
2023-05-16T17:16:45.559Z,97.98
2023-05-16T17:19:14.484Z,97.64
2023-05-16T17:21:44.651Z,97.95
2023-05-16T17:24:13.519Z,97.85
2023-05-16T17:26:43.450Z,97.94
2023-05-16T17:29:13.737Z,97.96
2023-05-16T17:31:42.579Z,97.96
2023-05-16T17:34:11.383Z,97.69
2023-05-16T17:36:40.516Z,97.97
2023-05-16T17:39:10.878Z,97.67
2023-05-16T17:41:40.029Z,98.08
2023-05-16T17:44:08.810Z,97.94
2023-05-16T17:46:39.965Z,97.72
2023-05-16T17:49:09.928Z,97.73
2023-05-16T17:51:50.366Z,97.78
2023-05-16T17:54:20.186Z,98.02
2023-05-16T17:56:50.522Z,98.17
2023-05-16T17:59:19.525Z,97.88
2023-05-16T18:01:50.028Z,97.73
2023-05-16T18:04:21.826Z,98.24
2023-05-16T18:06:52.708Z,97.84
2023-05-16T18:09:22.326Z,97.71
2023-05-16T18:11:50.850Z,97.58
2023-05-16T18:14:19.943Z,97.39
2023-05-16T18:16:50.298Z,97.83
2023-05-16T18:19:19.184Z,97.42
2023-05-16T18:21:48.067Z,97.95
2023-05-16T18:24:16.996Z,97.50
2023-05-16T18:26:48.690Z,97.30
2023-05-16T18:29:18.287Z,97.73
2023-05-16T18:31:47.327Z,97.29
2023-05-16T18:34:17.869Z,97.19
2023-05-16T18:36:48.294Z,97.74
2023-05-16T18:39:20.707Z,97.13
2023-05-16T18:41:49.817Z,97.35
2023-05-16T18:44:18.622Z,97.14
2023-05-16T18:46:47.977Z,97.12
2023-05-16T18:49:18.188Z,97.38
2023-05-16T18:51:47.093Z,97.23
2023-05-16T18:54:16.246Z,97.14
2023-05-16T18:56:45.193Z,97.53
2023-05-16T18:59:14.116Z,97.04
2023-05-16T19:01:44.801Z,97.25
2023-05-16T19:04:13.653Z,97.16
2023-05-16T19:06:44.191Z,97.56
2023-05-16T19:09:13.130Z,97.11
2023-05-16T19:11:42.055Z,97.52
2023-05-16T19:14:10.897Z,97.42
2023-05-16T19:16:41.168Z,97.27
2023-05-16T19:19:10.106Z,97.26
2023-05-16T19:21:39.212Z,97.60
2023-05-16T19:24:10.707Z,97.53
2023-05-16T19:26:40.159Z,97.50
2023-05-16T19:29:10.081Z,97.69
2023-05-16T19:31:39.047Z,97.17
2023-05-16T19:34:08.574Z,97.25
2023-05-16T19:36:37.544Z,97.39
2023-05-16T19:39:06.622Z,97.87
2023-05-16T19:41:36.959Z,97.50
2023-05-16T19:44:08.330Z,97.61
2023-05-16T19:46:37.795Z,97.79
2023-05-16T19:49:07.280Z,97.59
2023-05-16T19:51:41.743Z,97.75
2023-05-16T19:54:11.278Z,98.12
2023-05-16T19:56:42.463Z,98.34
2023-05-16T19:59:11.460Z,97.95
2023-05-16T20:04:10.463Z,98.57
2023-05-16T20:06:39.328Z,98.15
2023-05-16T20:09:08.405Z,98.10
2023-05-16T20:11:37.379Z,98.31
2023-05-16T20:14:07.709Z,98.25
2023-05-16T20:16:36.708Z,98.72
2023-05-16T20:19:06.175Z,98.20
2023-05-16T20:21:35.170Z,98.76
2023-05-16T20:24:06.136Z,98.47
2023-05-16T20:26:35.099Z,98.72
2023-05-16T20:29:04.126Z,98.48
2023-05-16T20:31:36.032Z,99.00
2023-05-16T20:34:04.977Z,98.46
2023-05-16T20:36:33.770Z,98.62
2023-05-16T20:39:02.647Z,98.63
2023-05-16T20:41:31.452Z,99.10
2023-05-16T20:44:00.368Z,99.13
2023-05-16T20:46:29.346Z,99.24
2023-05-16T20:48:59.808Z,98.79
2023-05-16T20:51:28.766Z,98.69
2023-05-16T20:53:57.649Z,98.83
2023-05-16T20:56:26.506Z,98.76
2023-05-16T20:58:55.969Z,98.69
2023-05-16T21:01:24.631Z,98.81
2023-05-16T21:03:53.449Z,98.91
2023-05-16T21:06:23.726Z,99.13
2023-05-16T21:08:52.491Z,99.05
2023-05-16T21:11:22.170Z,98.96
2023-05-16T21:13:50.793Z,99.21
2023-05-16T21:16:19.553Z,98.98
2023-05-16T21:18:48.793Z,98.97
2023-05-16T21:21:17.802Z,98.68
2023-05-16T21:23:48.115Z,99.00
2023-05-16T21:26:17.026Z,98.92
2023-05-16T21:31:20.511Z,98.58
2023-05-16T21:33:52.702Z,99.12
2023-05-16T21:36:22.873Z,98.91
2023-05-16T21:38:53.116Z,98.94
2023-05-16T21:41:22.624Z,99.03
2023-05-16T21:43:51.422Z,99.09
2023-05-16T21:46:20.698Z,99.10
2023-05-16T21:48:49.578Z,99.58
2023-05-16T21:51:19.828Z,99.48
2023-05-16T21:53:48.747Z,99.66
2023-05-16T21:56:19.169Z,99.35
2023-05-16T21:58:48.215Z,99.73
2023-05-16T22:01:17.138Z,99.54
2023-05-16T22:03:46.335Z,99.54
2023-05-16T22:06:15.247Z,99.85
2023-05-16T22:08:44.656Z,99.77
2023-05-16T22:11:13.577Z,99.59
2023-05-16T22:13:43.945Z,100.00
2023-05-16T22:16:12.746Z,99.94
2023-05-16T22:18:41.633Z,99.80
2023-05-16T22:21:10.593Z,100.00
2023-05-16T22:23:39.395Z,99.92
2023-05-16T22:26:08.275Z,100.00
2023-05-16T22:28:37.068Z,100.00
2023-05-16T22:31:07.914Z,100.00
2023-05-16T22:33:36.874Z,100.00
2023-05-16T22:36:06.643Z,100.00
2023-05-16T22:38:35.720Z,100.00
2023-05-16T22:41:04.496Z,100.00
2023-05-16T22:43:33.401Z,100.00
2023-05-16T22:46:03.251Z,100.00
2023-05-16T22:48:33.790Z,100.00
2023-05-16T22:51:03.045Z,100.00
2023-05-16T22:53:31.889Z,100.00
2023-05-16T22:56:00.844Z,100.00
2023-05-16T22:58:29.691Z,100.00
2023-05-16T23:00:59.467Z,100.00
2023-05-16T23:03:30.002Z,100.00
2023-05-16T23:06:00.233Z,100.00
2023-05-16T23:08:30.047Z,100.00
2023-05-16T23:10:58.925Z,100.00
2023-05-16T23:13:27.727Z,100.00
2023-05-16T23:15:56.626Z,100.00
2023-05-16T23:18:25.431Z,100.00
2023-05-16T23:20:54.494Z,100.00
2023-05-16T23:23:25.052Z,100.00
2023-05-16T23:25:53.887Z,100.00
2023-05-16T23:28:22.824Z,100.00
2023-05-16T23:30:51.732Z,100.00
2023-05-16T23:33:20.574Z,100.00
2023-05-16T23:35:49.570Z,100.00
2023-05-16T23:38:18.505Z,100.00
2023-05-16T23:40:48.833Z,100.00
2023-05-16T23:43:17.687Z,100.00
2023-05-16T23:45:47.105Z,100.00
2023-05-16T23:48:16.136Z,100.00
2023-05-16T23:50:44.995Z,100.00
2023-05-16T23:53:13.987Z,100.00
2023-05-16T23:55:42.799Z,100.00
2023-05-16T23:58:13.248Z,100.00
